Connecticut Logo

Norwalk, CT Single Family Real Estate Listings

263 Total Real Estate Listings * Click on table heading to sort
Date Posted Property Type Style Address Price Living Area Lot Size Price/Sq Ft.
2017-04-24 Single Family Contemporary 3 Old Rock Court Norwalk, CT 06850 $795,000 3,758 sq. ft. 45,738 sq. ft. $212
2017-04-24 Single Family Colonial 10 Deepwood Lane Norwalk, CT 06854 $599,000 2,292 sq. ft. 6,098 sq. ft. $261
2017-04-24 Single Family Cape; Bungalow 29 Gregory Boulevard Norwalk, CT 06855 $424,900 1,416 sq. ft. 6,970 sq. ft. $300
2017-04-24 Single Family Cape 2 Burchard Lane Norwalk, CT 06853 $400,000 1,656 sq. ft. 10,890 sq. ft. $242
2017-04-22 Single Family Colonial 178 Fillow Street Norwalk, CT 06850 $1,300,000 3,568 sq. ft. 85,378 sq. ft. $364
2017-04-21 Single Family Colonial; Farm House 251 Norwalk Road Norwalk, CT 06850 $1,130,000 4,712 sq. ft. 60,548 sq. ft. $240
2017-04-21 Single Family Ranch 90 Weed Avenue Norwalk, CT 06850 $695,000 1,811 sq. ft. 69,260 sq. ft. $384
2017-04-21 Single Family Colonial 35 Witch Lane Norwalk, CT 06853 $1,585,000 3,599 sq. ft. 12,632 sq. ft. $440
2017-04-21 Single Family Colonial; Antique 5 Yew Street Norwalk, CT 06850 $995,000 4,503 sq. ft. 50,530 sq. ft. $221
2017-04-21 Single Family Colonial 3 Lacey Lane Norwalk, CT 06854 $550,000 1,904 sq. ft. 7,405 sq. ft. $289
2017-04-21 Single Family Cape Cod; Colonial 14 Stonybrook Rd Norwalk, CT 06851 $599,000 2,147 sq. ft. 16,553 sq. ft. $279
2017-04-20 Single Family Colonial 44 Old Rock Lane Norwalk, CT 06850 $1,969,000 6,100 sq. ft. 108,900 sq. ft. $323
2017-04-20 Single Family Colonial 38 Rowayton Avenue Norwalk, CT 06853 $1,599,000 2,370 sq. ft. 10,454 sq. ft. $675
2017-04-20 Single Family Cape; Colonial 14 Stonybrook Road Norwalk, CT 06851 $599,000 2,147 sq. ft. 16,553 sq. ft. $279
2017-04-20 Single Family Ranch 9 Oriole Drive Norwalk, CT 06851 $519,900 1,956 sq. ft. 14,810 sq. ft. $266
2017-04-20 Single Family Colonial 89 Perry Avenue Norwalk, CT 06850 $558,089 2,089 sq. ft. 23,522 sq. ft. $267
2017-04-19 Single Family Colonial 70 Shorefront Park Norwalk, CT 06854 $1,695,000 2,086 sq. ft. 16,553 sq. ft. $813
2017-04-19 Single Family Colonial 15 Christopher Court Norwalk, CT 06851 $999,000 3,272 sq. ft. 33,106 sq. ft. $305
2017-04-19 Single Family Ranch 56 Nursery Street Norwalk, CT 06850 $375,000 1,376 sq. ft. 20,909 sq. ft. $273
2017-04-19 Single Family Colonial 8 Woodbine Street Norwalk, CT 06853 $1,050,000 2,329 sq. ft. 7,405 sq. ft. $451
2017-04-19 Single Family Ranch 129 Old Saugatuck Road Norwalk, CT 06855 $649,000 1,742 sq. ft. 16,553 sq. ft. $373
2017-04-19 Single Family Colonial 26 Thomes Street Norwalk, CT 06853 $749,000 1,626 sq. ft. 7,405 sq. ft. $461
2017-04-19 Single Family Colonial 59 Devils Garden Road Norwalk, CT 06854 $499,000 1,674 sq. ft. 6,970 sq. ft. $298
2017-04-19 Single Family Colonial 18 Roxbury Road Norwalk, CT 06855 $539,000 1,987 sq. ft. 14,375 sq. ft. $271
2017-04-18 Single Family Ranch 38 Saddle Road Norwalk, CT 06851 $479,000 2,135 sq. ft. 9,583 sq. ft. $224
2017-04-18 Single Family Cape 146 Wolfpit Avenue Norwalk, CT 06851 $375,000 1,644 sq. ft. 16,988 sq. ft. $228
2017-04-17 Single Family Colonial 76 Perry Avenue Norwalk, CT 06850 $495,000 1,842 sq. ft. 12,632 sq. ft. $269
2017-04-17 Single Family Colonial; Antique 232 Silvermine Avenue Norwalk, CT 06850 $675,000 2,386 sq. ft. 34,412 sq. ft. $283
2017-04-17 Single Family Split Level 20 Redcoat Road Norwalk, CT 06850 $615,000 2,274 sq. ft. 44,431 sq. ft. $270
2017-04-17 Single Family Cape; Colonial 36 Morehouse Lane Norwalk, CT 06850 $849,000 2,992 sq. ft. 45,738 sq. ft. $284
2017-04-17 Single Family Colonial 133 Dry Hill Road Norwalk, CT 06851 $405,000 1,692 sq. ft. 6,534 sq. ft. $239
2017-04-17 Single Family Colonial; Farm House 466 Newtown Avenue Norwalk, CT 06851 $485,000 1,596 sq. ft. 30,928 sq. ft. $304
2017-04-16 Single Family Contemporary 12 Thomas Place Norwalk, CT 06853 $2,995,000 4,670 sq. ft. $641
2017-04-16 Single Family Cottage 32 Crest Road Norwalk, CT 06853 $1,799,000 2,600 sq. ft. 4,356 sq. ft. $692
2017-04-15 Single Family Colonial 3 Dewal Court Norwalk, CT 06851 $570,000 2,422 sq. ft. 43,560 sq. ft. $235
2017-04-13 Single Family Colonial 135 Highland Avenue Norwalk, CT 06853 $1,629,000 4,271 sq. ft. 29,185 sq. ft. $381
2017-04-12 Single Family Colonial 15 Avenue B Avenue Norwalk, CT 06854 $510,000 1,950 sq. ft. 6,098 sq. ft. $262
2017-04-12 Single Family Colonial; Farm House 4 Bittersweet Trail Norwalk, CT 06853 $1,900,000 3,607 sq. ft. 25,700 sq. ft. $527
2017-04-12 Single Family Ranch 4 Baxter Drive Norwalk, CT 06854 $299,900 1,000 sq. ft. 4,356 sq. ft. $300
2017-04-12 Single Family Ranch 4 Skyview Lane Norwalk, CT 06851 $320,000 1,109 sq. ft. 14,375 sq. ft. $289
2017-04-12 Single Family Colonial 6 Wild Rose Lane Norwalk, CT 06850 $549,900 1,650 sq. ft. 6,970 sq. ft. $333
2017-04-11 Single Family Raised Ranch 135 Scribner Avenue Norwalk, CT 06854 $341,000 962 sq. ft. 6,970 sq. ft. $354
2017-04-11 Single Family Colonial; Antique 170 Silvermine Avenue Norwalk, CT 06850 $659,000 2,718 sq. ft. 50,094 sq. ft. $242
2017-04-11 Single Family Colonial 11 Winthrop Avenue Norwalk, CT 06851 $460,000 1,768 sq. ft. 10,019 sq. ft. $260
2017-04-11 Single Family Colonial; Contemporary 4 Oliver Street Norwalk, CT 06854 $749,000 2,276 sq. ft. 4,356 sq. ft. $329
2017-04-11 Single Family Ranch 227 Strawberry Hill Avenue Norwalk, CT 06851 $500,000 2,000 sq. ft. 23,087 sq. ft. $250
2017-04-10 Single Family Colonial 268 Main Avenue Norwalk, CT 06851 $599,000 2,136 sq. ft. 9,148 sq. ft. $280
2017-04-10 Single Family Ranch 7 Splitrock Road Norwalk, CT 06854 $619,000 1,800 sq. ft. 10,454 sq. ft. $344
2017-04-10 Single Family Colonial 7 Maxwell Road Norwalk, CT 06851 $519,000 2,435 sq. ft. 7,405 sq. ft. $213
2017-04-10 Single Family Cape 46 Toilsome Avenue Norwalk, CT 06851 $499,000 1,457 sq. ft. 16,988 sq. ft. $342
2017-04-10 Single Family Colonial 13 Bettswood Road Norwalk, CT 06851 $564,000 2,072 sq. ft. 6,534 sq. ft. $272
2017-04-10 Single Family Ranch 1 Vanderbilt Avenue Norwalk, CT 06854 $490,000 952 sq. ft. 10,019 sq. ft. $515
2017-04-08 Single Family Colonial; Antique 96 Weed Avenue Norwalk, CT 06850 $859,000 2,937 sq. ft. 60,984 sq. ft. $292
2017-04-08 Single Family Ranch 10 Overbrook Road Norwalk, CT 06851 $562,900 1,208 sq. ft. 14,810 sq. ft. $466
2017-04-07 Single Family Ranch 35 Glen Avenue Norwalk, CT 06850 $479,000 1,040 sq. ft. 17,424 sq. ft. $461
2017-04-07 Single Family Colonial 28 Visconti Street Norwalk, CT 06851 $539,900 1,650 sq. ft. 9,148 sq. ft. $327
2017-04-07 Single Family Cape 23 Melrose Avenue Norwalk, CT 06855 $449,000 1,300 sq. ft. 5,227 sq. ft. $345
2017-04-07 Single Family Colonial 90 County Street Norwalk, CT 06851 $524,999 1,976 sq. ft. 13,939 sq. ft. $266
2017-04-07 Single Family Colonial 24 Valley Road Norwalk, CT 06854 $3,850,000 5,133 sq. ft. 79,279 sq. ft. $750
2017-04-07 Single Family Ranch 8 Acorn Lane Norwalk, CT 06854 $524,900 1,198 sq. ft. 9,583 sq. ft. $438
2017-04-07 Single Family Colonial; Victorian 7 Camp Street Norwalk, CT 06851 $519,000 2,904 sq. ft. 13,068 sq. ft. $179
2017-04-07 Single Family Cape 28 June Avenue Norwalk, CT 06850 $399,999 1,382 sq. ft. 4,792 sq. ft. $289
2017-04-06 Single Family Colonial; Victorian 9 Morgan Avenue Norwalk, CT 06851 $534,000 3,231 sq. ft. 10,454 sq. ft. $165
2017-04-06 Single Family Colonial; Contemporary 52 Shorehaven Road Norwalk, CT 06855 $2,385,000 3,131 sq. ft. 48,352 sq. ft. $762
2017-04-06 Single Family Cape 30 Ambler Drive Norwalk, CT 06851 $499,900 1,820 sq. ft. 9,148 sq. ft. $275
2017-04-05 Single Family Raised Ranch 39 Surrey Drive Norwalk, CT 06851 $459,000 1,393 sq. ft. 18,731 sq. ft. $330
2017-04-05 Single Family Colonial; Contemporary 9 Orchard Hill Road Norwalk, CT 06851 $925,000 3,700 sq. ft. 43,560 sq. ft. $250
2017-04-04 Single Family Colonial 30 Orlando Road Norwalk, CT 06854 $799,000 3,000 sq. ft. 24,829 sq. ft. $266
2017-04-04 Single Family Contemporary; Cottage 9 Canfield Avenue Norwalk, CT 06855 $1,525,000 5,000 sq. ft. 43,560 sq. ft. $305
2017-04-04 Single Family Colonial 4 Coachmans Court Norwalk, CT 06850 $1,099,000 4,213 sq. ft. 44,867 sq. ft. $261
2017-04-03 Single Family Cape 12 Lakeview Drive Norwalk, CT 06850 $425,000 1,540 sq. ft. 6,534 sq. ft. $276
2017-04-03 Single Family Colonial; Mediterranean 118 Silvermine Avenue Norwalk, CT 06850 $797,500 3,022 sq. ft. 151,589 sq. ft. $264
2017-04-03 Single Family Colonial 192 Highland Avenue Norwalk, CT 06853 $1,350,000 3,052 sq. ft. 13,068 sq. ft. $442
2017-04-03 Single Family Colonial 43 Riverside Avenue Norwalk, CT 06850 $269,900 1,289 sq. ft. 4,792 sq. ft. $209
2017-04-03 Single Family Cape 12 Jean Avenue Norwalk, CT 06850 $490,000 1,737 sq. ft. 12,632 sq. ft. $282
2017-04-02 Single Family Hi-Ranch 15 Sheila Court Norwalk, CT 06851 $399,000 1,804 sq. ft. 8,276 sq. ft. $221
2017-04-02 Single Family Colonial 10.5 Deepwood Lane Norwalk, CT 06854 $660,000 2,292 sq. ft. 6,098 sq. ft. $288
2017-04-02 Single Family Colonial; Contemporary 5 James Street Norwalk, CT 06850 $828,900 2,712 sq. ft. 29,621 sq. ft. $306
2017-04-01 Single Family Colonial 6 1/2 Overbrook Road Norwalk, CT 06851 $925,000 3,697 sq. ft. 33,106 sq. ft. $250
2017-04-01 Single Family Colonial 10 Channel Avenue Norwalk, CT 06854 $439,000 1,260 sq. ft. 7,405 sq. ft. $348
2017-04-01 Single Family Cape 6 Lakeview Drive Norwalk, CT 06850 $419,999 1,260 sq. ft. 4,792 sq. ft. $333
2017-04-01 Single Family Cape 1 Swale Road Norwalk, CT 06855 $789,000 3,688 sq. ft. 45,738 sq. ft. $214
2017-03-31 Single Family Colonial 34 Range Road Norwalk, CT 06853 $1,595,000 3,137 sq. ft. 48,787 sq. ft. $508
2017-03-31 Single Family Contemporary; Raised Ranch 126 Perry Avenue Norwalk, CT 06850 $475,000 2,997 sq. ft. 62,291 sq. ft. $158
2017-03-31 Single Family Cape 8 Ensign Road Norwalk, CT 06853 $1,595,000 1,600 sq. ft. 9,583 sq. ft. $997
2017-03-31 Single Family Ranch; Cottage 2 Splitrock Road Norwalk, CT 06854 $559,900 1,594 sq. ft. 13,939 sq. ft. $351
2017-03-30 Single Family Ranch 27 Creeping Hemlock Drive Norwalk, CT 06851 $698,000 2,694 sq. ft. 46,174 sq. ft. $259
2017-03-30 Single Family Contemporary; Split Level 141 Fillow Street Norwalk, CT 06850 $540,000 2,268 sq. ft. 81,022 sq. ft. $238
2017-03-30 Single Family Colonial; Victorian 12 Morgan Avenue Norwalk, CT 06851 $719,000 3,231 sq. ft. 9,583 sq. ft. $223
2017-03-30 Single Family Ranch 58 Ponus Avenue Norwalk, CT 06850 $239,500 792 sq. ft. 11,326 sq. ft. $302
2017-03-30 Single Family Colonial; Contemporary 14 Duck Pond Road Norwalk, CT 06855 $995,000 4,812 sq. ft. 43,560 sq. ft. $207
2017-03-29 Single Family Contemporary 9 Juniper Road Norwalk, CT 06853 $1,329,000 3,168 sq. ft. 8,712 sq. ft. $420
2017-03-28 Single Family Split Level 3 William Street Norwalk, CT 06851 $569,900 3,000 sq. ft. 12,632 sq. ft. $190
2017-03-27 Single Family Split Level 60 Saddle Road Norwalk, CT 06851 $459,900 1,372 sq. ft. 8,276 sq. ft. $335
2017-03-27 Single Family Ranch 35 Hunters Lane Norwalk, CT 06850 $619,000 2,160 sq. ft. 41,818 sq. ft. $287
2017-03-27 Single Family Colonial; Farm House 14 1/2 Seir Hill Road Norwalk, CT 06850 $844,900 3,800 sq. ft. 26,572 sq. ft. $222
2017-03-25 Single Family Colonial 20 Richmond Road Norwalk, CT 06853 $1,196,000 1,931 sq. ft. 6,534 sq. ft. $619
2017-03-24 Single Family Colonial 23 Cedar Crest Place Norwalk, CT 06854 $367,500 1,216 sq. ft. 5,663 sq. ft. $302
2017-03-24 Single Family Colonial 26 Quintard Avenue Norwalk, CT 06854 $409,000 1,828 sq. ft. 4,792 sq. ft. $224
2017-03-23 Single Family Colonial 27 Old Rock Lane Norwalk, CT 06850 $759,999 2,840 sq. ft. 45,738 sq. ft. $268
2017-03-23 Single Family Cape; Colonial 116 Old Belden Hill Road Norwalk, CT 06850 $499,000 1,806 sq. ft. 26,136 sq. ft. $276
2017-03-23 Single Family Cape 96 George Avenue Norwalk, CT 06851 $445,000 1,512 sq. ft. 10,019 sq. ft. $294
2017-03-22 Single Family Raised Ranch 27 Priscilla Road Norwalk, CT 06850 $384,000 1,102 sq. ft. 15,246 sq. ft. $348
2017-03-21 Single Family Colonial 319 Flax Hill Road Norwalk, CT 06854 $639,000 2,356 sq. ft. 8,276 sq. ft. $271
2017-03-21 Single Family Colonial 2.5 Scribner Avenue Norwalk, CT 06854 $639,000 2,216 sq. ft. 7,841 sq. ft. $288
2017-03-20 Single Family Colonial; Tudor 16 Fairfield Avenue Norwalk, CT 06854 $424,900 2,628 sq. ft. 4,792 sq. ft. $162
2017-03-20 Single Family Colonial 62 Truman Street Norwalk, CT 06850 $575,000 3,156 sq. ft. 8,276 sq. ft. $182
2017-03-20 Single Family Colonial 6 Jayne Way Norwalk, CT 06851 $724,900 2,708 sq. ft. 23,522 sq. ft. $268
2017-03-19 Single Family Colonial; Contemporary 48 Burchard Lane Norwalk, CT 06853 $829,900 2,100 sq. ft. 54,886 sq. ft. $395
2017-03-19 Single Family Colonial 24 Neptune Avenue Norwalk, CT 06854 $419,000 1,894 sq. ft. 6,534 sq. ft. $221
2017-03-17 Single Family Colonial 77 Roton Avenue Norwalk, CT 06853 $2,595,000 3,688 sq. ft. 6,970 sq. ft. $704
2017-03-16 Single Family Tudor 66 Highland Avenue Norwalk, CT 06853 $1,575,000 3,670 sq. ft. 12,197 sq. ft. $429
2017-03-13 Single Family Bungalow 43 Osborne Avenue Norwalk, CT 06855 $299,000 1,122 sq. ft. 3,485 sq. ft. $266
2017-03-13 Single Family Contemporary 13 Weatherbell Drive Extension Norwalk, CT 06851 $875,000 2,768 sq. ft. 32,234 sq. ft. $316
2017-03-13 Single Family Cape 45 Dry Hill Road Norwalk, CT 06851 $395,000 1,284 sq. ft. 6,970 sq. ft. $308
2017-03-12 Single Family Colonial 6 Harvard Street Norwalk, CT 06851 $469,900 2,524 sq. ft. 9,148 sq. ft. $186
2017-03-10 Single Family Colonial; Farm House 9 Sylvester Court Norwalk, CT 06855 $3,199,000 4,124 sq. ft. 22,651 sq. ft. $776
2017-03-10 Single Family Colonial; Farm House 46 Devils Garden Road Norwalk, CT 06854 $499,900 1,526 sq. ft. 16,988 sq. ft. $328
2017-03-10 Single Family Ranch 7 Brookhill Lane Norwalk, CT 06851 $570,000 2,597 sq. ft. 23,522 sq. ft. $219
2017-03-09 Single Family Colonial 28 Pequot Drive Norwalk, CT 06855 $1,095,000 4,346 sq. ft. 48,787 sq. ft. $252
2017-03-08 Single Family Colonial 4 Weatherbell Drive Norwalk, CT 06851 $1,095,000 3,708 sq. ft. 30,928 sq. ft. $295
2017-03-08 Single Family Cape; Colonial 267 Fillow Street Norwalk, CT 06850 $745,000 3,236 sq. ft. 43,560 sq. ft. $230
2017-03-07 Single Family Colonial; Townhouse 302 Silver Creek Lane Norwalk, CT 06850 $765,000 3,400 sq. ft. $225
2017-03-07 Single Family Colonial 9 River Drive Norwalk, CT 06855 $899,000 2,800 sq. ft. 6,098 sq. ft. $321
2017-03-06 Single Family Colonial 32 Nearwater Road Norwalk, CT 06853 $1,699,000 2,442 sq. ft. 6,098 sq. ft. $696
2017-03-06 Single Family Colonial 4 Indian Hill Road Norwalk, CT 06850 $799,000 2,983 sq. ft. 50,530 sq. ft. $268
2017-03-06 Single Family Colonial 11 New Canaan Way Norwalk, CT 06850 $819,000 2,572 sq. ft. 16,553 sq. ft. $318
2017-03-06 Single Family Contemporary 74 Crooked Trail Norwalk, CT 06853 $925,000 3,258 sq. ft. 44,867 sq. ft. $284
2017-03-06 Single Family Raised Ranch 31 Woodchuck Lane Norwalk, CT 06854 $574,000 2,316 sq. ft. 32,670 sq. ft. $248
2017-03-06 Single Family Colonial 36 Princes Pine Road Norwalk, CT 06850 $779,000 2,914 sq. ft. 43,560 sq. ft. $267
2017-03-06 Single Family Cape 39 Emerson Street Norwalk, CT 06855 $375,000 1,165 sq. ft. 4,792 sq. ft. $322
2017-03-06 Single Family Colonial 33 Walter Avenue Norwalk, CT 06851 $675,000 3,280 sq. ft. 6,098 sq. ft. $206
2017-03-05 Single Family Contemporary 206 Silver Creek Lane Norwalk, CT 06850 $895,000 2,689 sq. ft. $333
2017-03-05 Single Family Colonial; Contemporary 130 Old Belden Hill Road Norwalk, CT 06850 $380,000 1,961 sq. ft. 16,988 sq. ft. $194
2017-03-03 Single Family Farm House 317 Rowayton Avenue Norwalk, CT 06853 $799,000 1,740 sq. ft. 24,394 sq. ft. $459
2017-03-03 Single Family Colonial 14 Buckingham Place Norwalk, CT 06851 $489,900 1,509 sq. ft. 6,098 sq. ft. $325
2017-03-03 Single Family Cape 27 Saddle Road Norwalk, CT 06851 $439,000 1,778 sq. ft. 8,712 sq. ft. $247
2017-03-02 Single Family Colonial 21 Ledge Road Norwalk, CT 06853 $1,365,000 2,850 sq. ft. 14,375 sq. ft. $479
2017-03-01 Single Family Colonial; Farm House 10 Sunset Hill Avenue Norwalk, CT 06851 $482,000 2,227 sq. ft. 6,098 sq. ft. $216
2017-02-28 Single Family Colonial 25 Ridgewood Road Norwalk, CT 06853 $1,465,000 3,718 sq. ft. 12,632 sq. ft. $394
2017-02-27 Single Family Colonial; Victorian 45 South Beach Drive Norwalk, CT 06853 $3,950,000 5,015 sq. ft. 12,197 sq. ft. $788
2017-02-27 Single Family Colonial 22 Princes Pine Road Norwalk, CT 06850 $729,000 3,076 sq. ft. 43,996 sq. ft. $237
2017-02-27 Single Family Ranch 4 Sasqua Pond Road Norwalk, CT 06855 $650,000 2,416 sq. ft. 54,014 sq. ft. $269
2017-02-26 Single Family Ranch; Cottage 33 Comstock Hill Avenue Norwalk, CT 06850 $579,033 2,169 sq. ft. 33,106 sq. ft. $267
2017-02-24 Single Family Colonial 24 1/2 Wilson Avenue Norwalk, CT 06853 $1,749,000 4,781 sq. ft. 12,197 sq. ft. $366
2017-02-23 Single Family Bungalow 34 Harbor View Avenue Norwalk, CT 06854 $794,000 1,408 sq. ft. 4,792 sq. ft. $564
2017-02-22 Single Family Colonial 5 Hazel Street Norwalk, CT 06851 $499,000 1,938 sq. ft. 8,712 sq. ft. $257
2017-02-22 Single Family Ranch 377 West Cedar Street Norwalk, CT 06854 $490,000 1,972 sq. ft. 13,068 sq. ft. $248
2017-02-21 Single Family Contemporary; Ranch 9 Geneva Road Norwalk, CT 06850 $729,000 3,319 sq. ft. 24,394 sq. ft. $220
2017-02-21 Single Family Colonial 183 Strawberry Hill Avenue Norwalk, CT 06851 $559,000 1,972 sq. ft. 6,970 sq. ft. $283
2017-02-21 Single Family Colonial 77 West Rocks Road Norwalk, CT 06851 $700,000 5,750 sq. ft. 17,424 sq. ft. $122
2017-02-19 Single Family Ranch 46 Winding Lane Norwalk, CT 06851 $459,000 1,668 sq. ft. 26,136 sq. ft. $275
2017-02-18 Single Family Contemporary Norwalk, CT $499,900 1,932 sq. ft. 30,492 sq. ft. $259
2017-02-18 Single Family Colonial Norwalk, CT $520,000 2,532 sq. ft. 14,375 sq. ft. $205
2017-02-16 Single Family Colonial 19 Sachem Street Norwalk, CT 06850 $469,000 1,656 sq. ft. 7,841 sq. ft. $283
2017-02-15 Single Family Ranch 20 Sasqua Road Norwalk, CT 06855 $1,299,000 3,084 sq. ft. 43,996 sq. ft. $421
2017-02-14 Single Family Colonial 9 Cannon Brook Lane Norwalk, CT 06851 $630,000 2,168 sq. ft. 1,742 sq. ft. $291
2017-02-13 Single Family Raised Ranch 85 County Street Norwalk, CT 06851 $459,900 1,188 sq. ft. 36,155 sq. ft. $387
2017-02-13 Single Family Colonial 3 Crooked Lane Norwalk, CT 06853 $1,769,000 3,804 sq. ft. 6,098 sq. ft. $465
2017-02-13 Single Family Colonial 14 1/2 Roton Avenue Norwalk, CT 06853 $1,695,000 4,800 sq. ft. 8,276 sq. ft. $353
2017-02-12 Single Family Colonial 18 Rockmeadow Road Norwalk, CT 06850 $584,000 2,792 sq. ft. 11,326 sq. ft. $209
2017-02-10 Single Family Colonial; Farm House 346 Chestnut Hill Road Norwalk, CT 06851 $895,000 3,635 sq. ft. 64,904 sq. ft. $246
2017-02-10 Single Family Cape; Colonial 41 Brooklawn Avenue Norwalk, CT 06854 $479,000 1,884 sq. ft. 6,098 sq. ft. $254
2017-02-09 Single Family Cape 6 Burchard Lane Norwalk, CT 06853 $699,000 1,639 sq. ft. 10,019 sq. ft. $426
2017-02-08 Single Family Townhouse 6 Caryn's Way Norwalk, CT 06851 $549,000 1,800 sq. ft. 7,405 sq. ft. $305
2017-02-07 Single Family Split Level 150 Rocks Road Norwalk, CT 06851 $475,000 1,317 sq. ft. 22,651 sq. ft. $361
2017-02-06 Single Family Colonial 68 Newtown Avenue Norwalk, CT 06851 $499,900 1,425 sq. ft. 10,890 sq. ft. $351
2017-02-06 Single Family Colonial 332 Rowayton Avenue Norwalk, CT 06853 $949,000 2,150 sq. ft. 39,640 sq. ft. $441
2017-02-06 Single Family Contemporary 18 Crest Road Norwalk, CT 06853 $2,175,000 3,027 sq. ft. 6,970 sq. ft. $719
2017-02-04 Single Family Colonial 65 Chestnut Hill Road Norwalk, CT 06851 $1,150,000 4,480 sq. ft. 37,026 sq. ft. $257
2017-02-03 Single Family Colonial 4 Old Farm Place Norwalk, CT 06850 $675,000 2,663 sq. ft. 8,276 sq. ft. $253
2017-02-02 Single Family Cape Cod; Contemporary 160 Gregory Blvd Norwalk, CT 06855 $589,000 1,360 sq. ft. 4,792 sq. ft. $433
2017-02-01 Single Family Cape Cod; Colonial 9 Sention Ave Norwalk, CT 06850 $459,900 1,296 sq. ft. 7,405 sq. ft. $355
2017-02-01 Single Family Colonial 180 Rocks Road Norwalk, CT 06851 $760,000 3,332 sq. ft. 24,829 sq. ft. $228
2017-02-01 Single Family Colonial 45 Bettswood Road Norwalk, CT 06851 $709,000 3,621 sq. ft. 23,087 sq. ft. $196
2017-01-31 Single Family Colonial 12 Lincoln Avenue Norwalk, CT 06854 $140,000 1,276 sq. ft. 4,792 sq. ft. $110
2017-01-30 Single Family Colonial 17 Devonshire Road Norwalk, CT 06850 $699,000 2,383 sq. ft. 62,726 sq. ft. $293
2017-01-28 Single Family Victorian 24 Ensign Road Norwalk, CT 06853 $2,175,000 2,796 sq. ft. 5,227 sq. ft. $778
2017-01-27 Single Family Colonial 363 Rowayton Avenue Norwalk, CT 06853 $975,000 3,608 sq. ft. 43,996 sq. ft. $270
2017-01-27 Single Family Contemporary 20 Geneva Road Norwalk, CT 06850 $949,900 4,776 sq. ft. 52,708 sq. ft. $199
2017-01-26 Single Family Colonial; Mediterranean 22 Cavray Road Norwalk, CT 06855 $1,550,000 7,598 sq. ft. 37,026 sq. ft. $204
2017-01-25 Single Family Colonial; Mediterranean 22 Cavray Rd Norwalk, CT 06855 $1,550,000 7,598 sq. ft. 37,026 sq. ft. $204
2017-01-24 Single Family Cape 13 Orange Street Norwalk, CT 06850 $318,250 1,152 sq. ft. 6,534 sq. ft. $276
2017-01-24 Single Family Colonial 17 Yarmouth Road Norwalk, CT 06853 $1,695,000 3,299 sq. ft. 3,920 sq. ft. $514
2017-01-23 Single Family Colonial; Contemporary 5 Plant Court Norwalk, CT 06853 $3,995,000 3,286 sq. ft. 5,663 sq. ft. $1,216
2017-01-20 Single Family Colonial 9 Burchard Lane Norwalk, CT 06853 $1,295,000 4,260 sq. ft. 12,197 sq. ft. $304
2017-01-19 Single Family Colonial 3 Mohackemo Drive Norwalk, CT 06850 $740,000 2,971 sq. ft. 48,352 sq. ft. $249
2017-01-12 Single Family Contemporary 158 Winfield Street Norwalk, CT 06855 $1,075,000 5,048 sq. ft. 68,825 sq. ft. $213
2017-01-10 Single Family Colonial 15 Ells Street Norwalk, CT 06850 $629,900 2,583 sq. ft. 6,098 sq. ft. $244
2017-01-10 Single Family Colonial 6 Blue Mountain Court Norwalk, CT 06851 $850,000 4,190 sq. ft. $203
2017-01-09 Single Family Colonial 22 Meridian Road Norwalk, CT 06853 $1,850,000 3,507 sq. ft. 10,454 sq. ft. $528
2017-01-09 Single Family Cape 12 Sunlit Drive Norwalk, CT 06851 $499,000 2,350 sq. ft. 10,454 sq. ft. $212
2017-01-08 Single Family Cape; Colonial 9 Sention Avenue Norwalk, CT 06850 $459,900 2,324 sq. ft. 7,405 sq. ft. $198
2017-01-04 Single Family Cape Cod 45 Ponus Avenue Norwalk, CT 06850 $469,900 2,203 sq. ft. 8,276 sq. ft. $213
2017-01-04 Single Family Cape 45 Ponus Avenue Norwalk, CT 06850 $469,900 2,203 sq. ft. 8,276 sq. ft. $213
2017-01-04 Single Family Contemporary 44 Nursery Street Norwalk, CT 06850 $526,900 3,976 sq. ft. 80,150 sq. ft. $133
2016-12-28 Single Family Colonial 25 Geneva Road Norwalk, CT 06850 $485,000 1,674 sq. ft. 28,750 sq. ft. $290
2016-12-28 Single Family Colonial 17 Covewood Drive Norwalk, CT 06853 $1,399,000 3,506 sq. ft. 26,136 sq. ft. $399
2016-12-22 Single Family Townhouse 212 Richards Avenue Norwalk, CT 06850 $739,900 2,950 sq. ft. 13,068 sq. ft. $251
2016-12-18 Single Family Colonial 2 Christopher Court Norwalk, CT 06851 $949,000 3,311 sq. ft. 21,780 sq. ft. $287
2016-12-13 Single Family Cottage 202 Rowayton Avenue Norwalk, CT 06853 $479,000 948 sq. ft. 11,761 sq. ft. $505
2016-12-06 Single Family Colonial 5 Logan Place Norwalk, CT 06853 $799,900 1,400 sq. ft. 6,098 sq. ft. $571
2016-12-02 Single Family Colonial 6 Westview Lane Norwalk, CT 06854 $999,999 3,969 sq. ft. 54,450 sq. ft. $252
2016-11-29 Single Family Colonial; Cottage 6 Oliver Street Norwalk, CT 06854 $899,000 2,432 sq. ft. 3,049 sq. ft. $370
2016-11-28 Single Family Colonial 10 Christopher Court Norwalk, CT 06851 $979,000 3,569 sq. ft. 21,780 sq. ft. $274
2016-11-28 Single Family Raised Ranch 23 Heather Lane Norwalk, CT 06851 $379,000 1,032 sq. ft. 6,534 sq. ft. $367
2016-11-15 Single Family Colonial; Contemporary 37 Kensett Avenue Norwalk, CT 06851 $869,900 3,600 sq. ft. 54,450 sq. ft. $242
2016-11-15 Single Family Cape; Colonial 6 Longview Court Norwalk, CT 06851 $349,000 1,372 sq. ft. 4,356 sq. ft. $254
2016-11-15 Single Family Ranch 180 Rocks Road Norwalk, CT 06851 $475,000 2,274 sq. ft. 24,829 sq. ft. $209
2016-11-12 Single Family Colonial 196 Scribner Avenue Norwalk, CT 06854 $799,000 2,854 sq. ft. 44,431 sq. ft. $280
2016-11-10 Single Family Colonial 7 Ledge Road Norwalk, CT 06853 $1,890,000 5,222 sq. ft. 25,700 sq. ft. $362
2016-11-06 Single Family Ranch 42 Arnold Lane Norwalk, CT 06853 $580,000 1,056 sq. ft. 14,810 sq. ft. $549
2016-11-03 Single Family Colonial 3 Juhasz Road Norwalk, CT 06854 $474,500 1,951 sq. ft. 8,712 sq. ft. $243
2016-10-28 Single Family Colonial; Farm House 135 Perry Avenue Norwalk, CT 06850 $759,000 4,344 sq. ft. 44,431 sq. ft. $175
2016-10-24 Single Family Farm House 64 Grumman Avenue Norwalk, CT 06851 $449,000 2,000 sq. ft. 16,553 sq. ft. $224
2016-10-24 Single Family Raised Ranch 15 Knollwood Road Norwalk, CT 06854 $459,900 1,108 sq. ft. 8,276 sq. ft. $415
2016-10-23 Single Family Ranch 21 Burchard Lane Norwalk, CT 06853 $629,000 1,248 sq. ft. 22,216 sq. ft. $504
2016-10-21 Single Family Cape; Colonial 54 Soundview Avenue Norwalk, CT 06854 $479,500 2,357 sq. ft. 8,712 sq. ft. $203
2016-10-19 Single Family Ranch 4 Raymond Lane Norwalk, CT 06855 $699,000 2,446 sq. ft. 26,572 sq. ft. $286
2016-10-07 Single Family Contemporary 22 Point Road Norwalk, CT 06854 $4,500,000 5,000 sq. ft. 13,504 sq. ft. $900
2016-09-26 Single Family Cape 36 Pine Point Road Norwalk, CT 06853 $1,199,000 1,957 sq. ft. 4,356 sq. ft. $613
2016-09-23 Single Family Colonial; Contemporary 314 Newtown Avenue Norwalk, CT 06851 $639,000 3,386 sq. ft. 125,453 sq. ft. $189
2016-09-20 Single Family Colonial 7 Jayne Way Norwalk, CT 06851 $899,999 4,950 sq. ft. 25,700 sq. ft. $182
2016-09-19 Single Family Cottage 25 Wilson Avenue Norwalk, CT 06853 $1,279,000 2,154 sq. ft. 9,148 sq. ft. $594
2016-09-15 Single Family Colonial 8 Lacey Lane Norwalk, CT 06854 $609,900 2,738 sq. ft. 13,068 sq. ft. $223
2016-09-14 Single Family Raised Ranch; Split Level 15 Saint Marys Lane Norwalk, CT 06851 $650,000 2,500 sq. ft. 23,522 sq. ft. $260
2016-09-12 Single Family Colonial 220 Highland Avenue Norwalk, CT 06853 $775,000 3,060 sq. ft. 15,246 sq. ft. $253
2016-09-09 Single Family Contemporary 1 & 2 Rocky Point Road Norwalk, CT 06853 $5,750,000 4,574 sq. ft. 4,792 sq. ft. $1,257
2016-09-08 Single Family Colonial 17 Rockmere Road Norwalk, CT 06851 $429,500 1,408 sq. ft. 6,534 sq. ft. $305
2016-09-07 Single Family Colonial 4 Silver River Court Norwalk, CT 06850 $749,000 3,000 sq. ft. 21,780 sq. ft. $250
2016-09-05 Single Family Colonial 2 Bumblebee Lane Norwalk, CT 06851 $1,049,000 3,773 sq. ft. 44,431 sq. ft. $278
2016-08-21 Single Family Cape 40 Ambler Drive Norwalk, CT 06851 $199,990 1,260 sq. ft. 10,890 sq. ft. $159
2016-08-11 Single Family Colonial 291 Chestnut Hill Road Norwalk, CT 06851 $685,000 5,200 sq. ft. 72,745 sq. ft. $132
2016-08-06 Single Family Cape 5 Ludlow Manor Norwalk, CT 06855 $549,900 1,814 sq. ft. 6,534 sq. ft. $303
2016-07-24 Single Family Colonial 6 Old Rock Court Norwalk, CT 06850 $1,895,000 6,613 sq. ft. 158,558 sq. ft. $287
2016-07-06 Single Family Colonial; Antique 124 Grumman Avenue Norwalk, CT 06851 $499,000 2,338 sq. ft. 41,818 sq. ft. $213
2016-07-01 Single Family Colonial; Farm House 228 Wolfpit Avenue Norwalk, CT 06851 $499,000 3,243 sq. ft. 22,216 sq. ft. $154
2016-06-30 Single Family Colonial 531 Flax Hill Road Norwalk, CT 06854 $875,000 3,700 sq. ft. 28,750 sq. ft. $236
2016-06-27 Single Family Colonial 8 Parkview Road Norwalk, CT 06853 $2,895,000 4,072 sq. ft. 7,841 sq. ft. $711
2016-06-20 Single Family Colonial 127 Perry Avenue Norwalk, CT 06850 $749,900 3,606 sq. ft. 46,174 sq. ft. $208
2016-06-17 Single Family Colonial 209 Rowayton Avenue Norwalk, CT 06853 $1,329,000 2,122 sq. ft. 12,632 sq. ft. $626
2016-06-11 Single Family Colonial 3 Steppingstone Road Norwalk, CT 06850 $570,000 2,460 sq. ft. 30,928 sq. ft. $232
2016-06-11 Single Family Cape 60 Lexington Avenue Norwalk, CT 06854 $134,900 1,681 sq. ft. 3,920 sq. ft. $80
2016-06-01 Single Family Farm House 5 Top Sail Road Norwalk, CT 06853 $2,635,000 5,100 sq. ft. 12,197 sq. ft. $517
2016-05-24 Single Family Colonial 8 Imperial Drive Norwalk, CT 06854 $850,000 3,216 sq. ft. 25,700 sq. ft. $264
2016-05-22 Single Family Colonial 12 Tommys Lane Norwalk, CT 06850 $639,000 2,596 sq. ft. 44,431 sq. ft. $246
2016-05-20 Single Family Colonial 16 Nathan Hale Drive Norwalk, CT 06854 $5,050,000 5,676 sq. ft. 47,916 sq. ft. $890
2016-05-18 Single Family Colonial 142 Gregory Boulevard Norwalk, CT 06855 $799,000 2,773 sq. ft. 11,761 sq. ft. $288
2016-05-09 Single Family Colonial 4 Old Rock Court Norwalk, CT 06850 $879,000 3,396 sq. ft. 46,609 sq. ft. $259
2016-04-20 Single Family Contemporary 21 View Lane Norwalk, CT 06854 $549,000 1,815 sq. ft. 29,185 sq. ft. $302
2016-04-12 Single Family Contemporary 10 Woodland Road Norwalk, CT 06854 $5,995,000 6,088 sq. ft. 43,560 sq. ft. $985
2016-04-08 Single Family Colonial 41 Highland Avenue Norwalk, CT 06853 $3,375,000 6,724 sq. ft. 19,602 sq. ft. $502
2016-04-04 Single Family Cape; Colonial 309 Newtown Avenue Norwalk, CT 06851 $479,000 2,090 sq. ft. 12,632 sq. ft. $229
2016-04-04 Single Family Cape; Colonial 2 Crockett Street Norwalk, CT 06853 $1,575,000 2,873 sq. ft. 10,890 sq. ft. $548
2016-03-01 Single Family Colonial; Antique 176 Perry Avenue Norwalk, CT 06850 $685,000 3,000 sq. ft. 42,689 sq. ft. $228
2016-02-10 Single Family Colonial 11 Juniper Road Norwalk, CT 06853 $2,379,000 4,640 sq. ft. 6,534 sq. ft. $513
2016-02-03 Single Family Colonial 6 Riverwalk Lane Norwalk, CT 06850 $749,000 2,820 sq. ft. 6,098 sq. ft. $266
2016-01-19 Single Family Colonial 12 Valley Road Norwalk, CT 06854 $11,400,000 12,768 sq. ft. 125,453 sq. ft. $893
2016-01-15 Single Family Colonial 14 Shorehaven Road Norwalk, CT 06855 $5,498,000 5,580 sq. ft. 33,977 sq. ft. $985
2015-10-13 Single Family Colonial; Tudor Tavern Island Norwalk, CT 06854 $10,995,000 6,116 sq. ft. 152,460 sq. ft. $1,798
2015-09-14 Single Family Colonial 46 Carter Street Norwalk, CT 06850 $870,000 4,382 sq. ft. 39,204 sq. ft. $199
2015-03-18 Single Family Colonial 17 Shagbark Road Norwalk, CT 06854 $1,795,000 4,200 sq. ft. 30,928 sq. ft. $427
2015-01-23 Single Family Colonial 54 Fillow Street Norwalk, CT 06850 $649,000 2,413 sq. ft. 8,276 sq. ft. $269